createdAt,value
2023-01-12T00:00:07.129Z,21.50
2023-01-12T00:02:36.942Z,21.50
2023-01-12T00:05:06.450Z,21.50
2023-01-12T00:07:37.607Z,21.40
2023-01-12T00:10:07.283Z,21.40
2023-01-12T00:12:36.371Z,21.50
2023-01-12T00:15:05.794Z,21.50
2023-01-12T00:17:34.864Z,21.50
2023-01-12T00:20:05.159Z,21.50
2023-01-12T00:22:34.255Z,21.50
2023-01-12T00:25:03.325Z,21.50
2023-01-12T00:27:32.478Z,21.50
2023-01-12T00:30:01.571Z,21.50
2023-01-12T00:32:30.789Z,21.50
2023-01-12T00:35:00.015Z,21.50
2023-01-12T00:37:29.114Z,21.60
2023-01-12T00:40:02.624Z,21.60
2023-01-12T00:42:50.474Z,21.60
2023-01-12T00:45:22.845Z,21.60
2023-01-12T00:47:52.520Z,21.70
2023-01-12T00:50:21.734Z,21.70
2023-01-12T00:52:50.914Z,21.70
2023-01-12T00:55:20.147Z,21.70
2023-01-12T00:57:49.392Z,21.80
2023-01-12T01:00:22.235Z,21.80
2023-01-12T01:02:51.528Z,21.80
2023-01-12T01:05:20.775Z,21.80
2023-01-12T01:07:49.846Z,21.90
2023-01-12T01:10:19.386Z,21.90
2023-01-12T01:12:48.574Z,21.90
2023-01-12T01:15:17.747Z,22.00
2023-01-12T01:17:46.857Z,22.00
2023-01-12T01:20:16.107Z,22.10
2023-01-12T01:22:45.246Z,22.10
2023-01-12T01:25:14.559Z,22.10
2023-01-12T01:27:43.831Z,22.20
2023-01-12T01:30:13.467Z,22.20
2023-01-12T01:32:42.624Z,22.30
2023-01-12T01:35:11.998Z,22.30
2023-01-12T01:37:41.125Z,22.30
2023-01-12T01:40:11.453Z,22.40
2023-01-12T01:42:42.541Z,22.40
2023-01-12T01:45:17.924Z,22.50
2023-01-12T01:47:53.891Z,22.50
2023-01-12T01:50:26.457Z,22.50
2023-01-12T01:53:04.826Z,22.60
2023-01-12T01:56:03.898Z,22.60
2023-01-12T01:58:49.146Z,22.70
2023-01-12T02:01:19.112Z,22.70
2023-01-12T02:03:49.463Z,22.70
2023-01-12T02:06:19.264Z,22.70
2023-01-12T02:09:04.852Z,22.70
2023-01-12T02:11:56.936Z,22.70
2023-01-12T02:14:44.599Z,22.70
2023-01-12T02:17:50.911Z,22.80
2023-01-12T02:20:58.880Z,22.80
2023-01-12T02:24:25.308Z,22.80
2023-01-12T02:27:51.029Z,22.80
2023-01-12T02:31:05.725Z,22.90
2023-01-12T02:34:11.590Z,22.90
2023-01-12T02:37:14.420Z,22.90
2023-01-12T02:40:18.661Z,23.00
2023-01-12T02:43:27.745Z,23.00
2023-01-12T02:46:28.848Z,23.10
2023-01-12T02:49:08.239Z,23.10
2023-01-12T02:51:55.369Z,23.20
2023-01-12T02:54:29.002Z,23.30
2023-01-12T02:57:10.233Z,23.40
2023-01-12T02:59:46.243Z,23.40
2023-01-12T03:02:26.358Z,23.50
2023-01-12T03:04:56.340Z,23.60
2023-01-12T03:07:47.978Z,23.60
2023-01-12T03:10:42.946Z,23.70
2023-01-12T03:13:17.832Z,23.70
2023-01-12T03:15:53.509Z,23.80
2023-01-12T03:18:57.633Z,23.80
2023-01-12T03:21:36.282Z,23.80
2023-01-12T03:24:10.573Z,23.80
2023-01-12T03:26:55.578Z,23.90
2023-01-12T03:29:31.108Z,23.90
2023-01-12T03:32:00.856Z,23.90
2023-01-12T03:34:30.834Z,24.00
2023-01-12T03:37:17.819Z,24.00
2023-01-12T03:40:11.267Z,24.00
2023-01-12T03:42:54.352Z,24.00
2023-01-12T03:45:53.845Z,24.00
2023-01-12T03:48:29.303Z,24.00
2023-01-12T03:51:25.230Z,24.00
2023-01-12T03:54:00.628Z,24.00
2023-01-12T03:56:41.121Z,24.00
2023-01-12T03:59:10.876Z,24.00
2023-01-12T04:01:40.933Z,24.00
2023-01-12T04:04:10.322Z,24.10
2023-01-12T04:06:39.496Z,24.10
2023-01-12T04:09:08.956Z,24.10
2023-01-12T04:11:56.591Z,24.10
2023-01-12T04:14:25.843Z,24.00
2023-01-12T04:16:55.294Z,24.00
2023-01-12T04:19:24.651Z,24.00
2023-01-12T04:22:11.962Z,24.00
2023-01-12T04:24:41.172Z,24.00
2023-01-12T04:27:11.028Z,24.00
2023-01-12T04:29:40.316Z,24.00
2023-01-12T04:32:09.712Z,24.00
2023-01-12T04:34:40.551Z,24.10
2023-01-12T04:37:09.829Z,24.20
2023-01-12T04:39:38.986Z,24.20
2023-01-12T04:42:28.019Z,24.20
2023-01-12T04:44:57.208Z,24.20
2023-01-12T04:47:26.437Z,24.20
2023-01-12T04:49:55.705Z,24.20
2023-01-12T04:52:24.901Z,24.30
2023-01-12T04:54:56.689Z,24.40
2023-01-12T04:57:26.181Z,24.40
2023-01-12T04:59:56.628Z,24.50
2023-01-12T05:02:26.232Z,24.50
2023-01-12T05:04:55.386Z,24.60
2023-01-12T05:07:24.562Z,24.70
2023-01-12T05:10:12.078Z,24.70
2023-01-12T05:12:41.148Z,24.80
2023-01-12T05:15:10.871Z,24.80
2023-01-12T05:17:40.055Z,24.80
2023-01-12T05:20:10.413Z,24.80
2023-01-12T05:22:39.503Z,24.80
2023-01-12T05:25:09.914Z,24.80
2023-01-12T05:27:39.021Z,24.70
2023-01-12T05:30:09.629Z,24.70
2023-01-12T05:32:42.605Z,24.70
2023-01-12T05:35:12.141Z,24.70
2023-01-12T05:37:42.564Z,24.70
2023-01-12T05:40:13.437Z,24.80
2023-01-12T05:43:01.611Z,24.80
2023-01-12T05:45:31.328Z,24.90
2023-01-12T05:48:03.580Z,25.00
2023-01-12T05:50:33.370Z,25.00
2023-01-12T05:53:03.083Z,25.10
2023-01-12T05:55:32.806Z,25.10
2023-01-12T05:58:02.846Z,25.20
2023-01-12T06:00:33.132Z,25.30
2023-01-12T06:03:05.013Z,25.30
2023-01-12T06:05:34.776Z,25.40
2023-01-12T06:08:04.672Z,25.40
2023-01-12T06:10:35.961Z,25.40
2023-01-12T06:13:23.192Z,25.50
2023-01-12T06:15:52.427Z,25.50
2023-01-12T06:18:23.543Z,25.60
2023-01-12T06:20:52.758Z,25.60
2023-01-12T06:23:22.095Z,25.50
2023-01-12T06:26:10.348Z,25.50
2023-01-12T06:28:41.952Z,25.50
2023-01-12T06:31:14.849Z,25.50
2023-01-12T06:33:44.672Z,25.50
2023-01-12T06:36:13.983Z,25.50
2023-01-12T06:38:44.317Z,25.40
2023-01-12T06:41:33.050Z,25.50
2023-01-12T06:44:02.640Z,25.50
2023-01-12T06:46:32.212Z,25.50
2023-01-12T06:49:01.464Z,25.50
2023-01-12T06:51:30.757Z,25.40
2023-01-12T06:53:59.920Z,25.40
2023-01-12T06:56:29.209Z,25.40
2023-01-12T06:58:58.383Z,25.40
2023-01-12T07:01:28.400Z,25.40
2023-01-12T07:03:57.598Z,25.40
2023-01-12T07:06:26.798Z,25.40
2023-01-12T07:08:55.951Z,25.40
2023-01-12T07:11:25.469Z,25.40
2023-01-12T07:13:54.638Z,25.40
2023-01-12T07:16:24.002Z,25.40
2023-01-12T07:18:53.211Z,25.50
2023-01-12T07:21:25.667Z,25.50
2023-01-12T07:23:54.878Z,25.50
2023-01-12T07:26:24.035Z,25.60
2023-01-12T07:28:53.240Z,25.60
2023-01-12T07:31:22.576Z,25.70
2023-01-12T07:33:54.956Z,25.70
2023-01-12T07:36:26.859Z,25.80
2023-01-12T07:38:56.136Z,25.80
2023-01-12T07:41:43.914Z,25.80
2023-01-12T07:44:13.198Z,25.80
2023-01-12T07:46:42.438Z,25.90
2023-01-12T07:49:11.745Z,25.90
2023-01-12T07:51:41.037Z,26.00
2023-01-12T07:54:10.889Z,26.00
2023-01-12T07:56:40.046Z,26.00
2023-01-12T07:59:09.241Z,26.10
2023-01-12T08:01:41.268Z,26.00
2023-01-12T08:04:10.588Z,26.10
2023-01-12T08:06:39.827Z,26.10
2023-01-12T08:09:09.318Z,26.20
2023-01-12T08:11:42.510Z,26.20
2023-01-12T08:14:25.653Z,26.20
2023-01-12T08:16:57.589Z,26.20
2023-01-12T08:19:38.285Z,26.20
2023-01-12T08:22:17.702Z,26.20
2023-01-12T08:25:00.898Z,26.20
2023-01-12T08:27:35.146Z,26.20
2023-01-12T08:30:09.170Z,26.20
2023-01-12T08:32:38.993Z,26.20
2023-01-12T08:35:09.836Z,26.20
2023-01-12T08:37:39.187Z,26.20
2023-01-12T08:40:09.726Z,26.20
2023-01-12T08:42:38.899Z,26.20
2023-01-12T08:45:09.617Z,26.20
2023-01-12T08:47:44.199Z,26.20
2023-01-12T08:50:15.428Z,26.20
2023-01-12T08:52:44.566Z,26.20
2023-01-12T08:55:13.851Z,26.20
2023-01-12T08:57:43.121Z,26.20
2023-01-12T09:00:13.148Z,26.10
2023-01-12T09:02:43.222Z,26.10
2023-01-12T09:05:12.340Z,26.00
2023-01-12T09:07:42.895Z,26.00
2023-01-12T09:10:12.447Z,26.00
2023-01-12T09:12:41.597Z,26.00
2023-01-12T09:15:11.614Z,26.00
2023-01-12T09:17:40.917Z,26.00
2023-01-12T09:20:10.826Z,26.00
2023-01-12T09:22:39.864Z,26.00
2023-01-12T09:25:09.476Z,26.00
2023-01-12T09:27:39.246Z,26.00
2023-01-12T09:30:09.713Z,26.00
2023-01-12T09:32:38.973Z,26.00
2023-01-12T09:35:08.874Z,26.10
2023-01-12T09:37:38.907Z,26.30
2023-01-12T09:40:09.030Z,26.40
2023-01-12T09:42:57.315Z,26.60
2023-01-12T09:45:44.463Z,26.80
2023-01-12T09:48:15.365Z,26.90
2023-01-12T09:51:03.033Z,26.90
2023-01-12T09:53:41.583Z,27.00
2023-01-12T09:56:17.287Z,27.00
2023-01-12T09:59:06.324Z,27.00
2023-01-12T10:01:38.350Z,27.00
2023-01-12T10:04:09.059Z,26.90
2023-01-12T10:06:38.473Z,26.80
2023-01-12T10:09:22.899Z,26.80
2023-01-12T10:12:43.074Z,26.80
2023-01-12T10:15:58.807Z,26.80
2023-01-12T10:18:47.663Z,26.70
2023-01-12T10:21:17.093Z,26.60
2023-01-12T10:23:47.085Z,26.60
2023-01-12T10:26:26.772Z,26.50
2023-01-12T10:28:59.298Z,26.40
2023-01-12T10:31:28.843Z,26.40
2023-01-12T10:34:13.320Z,26.40
2023-01-12T10:36:50.603Z,26.30
2023-01-12T10:39:35.201Z,26.30
2023-01-12T10:42:45.131Z,26.20
2023-01-12T10:45:24.490Z,26.10
2023-01-12T10:47:55.114Z,26.00
2023-01-12T10:50:30.231Z,25.90
2023-01-12T10:53:12.646Z,25.80
2023-01-12T10:55:44.424Z,25.70
2023-01-12T10:58:39.713Z,25.60
2023-01-12T11:01:09.541Z,25.50
2023-01-12T11:03:43.089Z,25.50
2023-01-12T11:06:33.954Z,25.40
2023-01-12T11:09:25.754Z,25.30
2023-01-12T11:12:35.663Z,25.20
2023-01-12T11:15:13.894Z,25.10
2023-01-12T11:18:39.836Z,25.00
2023-01-12T11:21:18.928Z,25.00
2023-01-12T11:24:18.358Z,24.90
2023-01-12T11:27:30.808Z,24.80
2023-01-12T11:30:04.965Z,24.70
2023-01-12T11:33:00.557Z,24.60
2023-01-12T11:35:45.968Z,24.50
2023-01-12T11:38:51.883Z,24.50
2023-01-12T11:42:14.145Z,24.40
2023-01-12T11:45:15.105Z,24.30
2023-01-12T11:48:23.510Z,24.30
2023-01-12T11:50:55.037Z,24.20
2023-01-12T11:53:26.919Z,24.20
2023-01-12T11:56:37.534Z,24.10
2023-01-12T11:59:23.500Z,24.00
2023-01-12T12:02:38.436Z,24.00
2023-01-12T12:05:31.597Z,23.90
2023-01-12T12:08:41.251Z,23.90
2023-01-12T12:12:00.791Z,23.80
2023-01-12T12:14:45.227Z,23.80
2023-01-12T12:17:29.352Z,23.70
2023-01-12T12:20:47.789Z,23.60
2023-01-12T12:23:41.450Z,23.60
2023-01-12T12:26:45.359Z,23.50
2023-01-12T12:29:23.727Z,23.40
2023-01-12T12:32:25.610Z,23.40
2023-01-12T12:35:26.940Z,23.30
2023-01-12T12:38:21.840Z,23.30
2023-01-12T12:41:30.235Z,23.20
2023-01-12T12:44:35.940Z,23.20
2023-01-12T12:47:29.612Z,23.20
2023-01-12T12:50:01.719Z,23.20
2023-01-12T12:52:36.588Z,23.10
2023-01-12T12:55:07.884Z,23.10
2023-01-12T12:58:22.398Z,23.10
2023-01-12T13:00:57.760Z,23.10
2023-01-12T13:03:42.444Z,23.00
2023-01-12T13:06:31.928Z,23.00
2023-01-12T13:09:11.750Z,23.00
2023-01-12T13:12:01.301Z,23.00
2023-01-12T13:14:39.137Z,22.90
2023-01-12T13:17:23.358Z,22.90
2023-01-12T13:20:24.220Z,22.90
2023-01-12T13:22:54.457Z,22.90
2023-01-12T13:25:24.867Z,22.90
2023-01-12T13:28:00.915Z,22.90
2023-01-12T13:30:33.000Z,22.80
2023-01-12T13:33:17.388Z,22.80
2023-01-12T13:35:47.379Z,22.80
2023-01-12T13:38:52.884Z,22.80
2023-01-12T13:41:50.069Z,22.80
2023-01-12T13:44:35.657Z,22.80
2023-01-12T13:47:17.759Z,22.70
2023-01-12T13:49:53.413Z,22.70
2023-01-12T13:52:30.772Z,22.70
2023-01-12T13:55:00.789Z,22.70
2023-01-12T13:57:32.665Z,22.70
2023-01-12T14:00:10.081Z,22.60
2023-01-12T14:02:41.543Z,22.60
2023-01-12T14:05:27.042Z,22.60
2023-01-12T14:08:36.817Z,22.60
2023-01-12T14:11:27.121Z,22.60
2023-01-12T14:14:48.410Z,22.60
2023-01-12T14:17:48.903Z,22.60
2023-01-12T14:20:23.578Z,22.60
2023-01-12T14:23:15.214Z,22.60
2023-01-12T14:25:45.813Z,22.60
2023-01-12T14:28:24.016Z,22.60
2023-01-12T14:30:57.993Z,22.50
2023-01-12T14:33:35.569Z,22.50
2023-01-12T14:36:13.627Z,22.50
2023-01-12T14:38:45.529Z,22.50
2023-01-12T14:41:42.305Z,22.50
2023-01-12T14:44:46.210Z,22.50
2023-01-12T14:47:33.220Z,22.50
2023-01-12T14:50:17.122Z,22.50
2023-01-12T14:52:49.387Z,22.50
2023-01-12T14:55:27.944Z,22.50
2023-01-12T14:58:06.973Z,22.50
2023-01-12T15:00:43.966Z,22.50
2023-01-12T15:03:31.911Z,22.40
2023-01-12T15:06:06.067Z,22.40
2023-01-12T15:08:37.445Z,22.40
2023-01-12T15:11:11.743Z,22.40
2023-01-12T15:13:40.960Z,22.40
2023-01-12T15:16:31.398Z,22.30
2023-01-12T15:19:19.211Z,22.40
2023-01-12T15:22:06.446Z,22.30
2023-01-12T15:24:54.994Z,22.30
2023-01-12T15:27:26.610Z,22.30
2023-01-12T15:29:56.584Z,22.20
2023-01-12T15:32:47.683Z,22.30
2023-01-12T15:35:24.981Z,22.20
2023-01-12T15:37:57.899Z,22.20
2023-01-12T15:40:29.388Z,22.20
2023-01-12T15:43:00.774Z,22.20
2023-01-12T15:45:40.893Z,22.20
2023-01-12T15:48:10.975Z,22.20
2023-01-12T15:50:43.549Z,22.20
2023-01-12T15:53:22.981Z,22.20
2023-01-12T15:55:52.194Z,22.10
2023-01-12T15:58:21.395Z,22.10
2023-01-12T16:00:50.803Z,22.10
2023-01-12T16:03:54.460Z,22.10
2023-01-12T16:06:09.584Z,22.10
2023-01-12T16:08:39.471Z,22.10
2023-01-12T16:11:18.795Z,22.10
2023-01-12T16:13:50.270Z,22.10
2023-01-12T16:16:22.149Z,22.10
2023-01-12T16:18:51.335Z,22.00
2023-01-12T16:21:24.331Z,22.00
2023-01-12T16:23:54.502Z,22.00
2023-01-12T16:26:23.583Z,22.00
2023-01-12T16:28:52.778Z,22.00
2023-01-12T16:31:22.539Z,22.00
2023-01-12T16:33:51.658Z,22.00
2023-01-12T16:36:20.865Z,22.00
2023-01-12T16:38:52.369Z,22.00
2023-01-12T16:41:23.313Z,22.00
2023-01-12T16:43:52.561Z,22.00
2023-01-12T16:46:21.976Z,21.90
2023-01-12T16:48:52.802Z,21.90
2023-01-12T16:51:22.069Z,21.90
2023-01-12T16:53:52.442Z,21.90
2023-01-12T16:56:21.821Z,21.80
2023-01-12T16:58:51.051Z,21.80
2023-01-12T17:01:25.689Z,21.80
2023-01-12T17:03:58.754Z,21.80
2023-01-12T17:06:30.817Z,21.70
2023-01-12T17:09:03.539Z,21.70
2023-01-12T17:11:33.824Z,21.70
2023-01-12T17:14:23.797Z,21.60
2023-01-12T17:16:57.384Z,21.60
2023-01-12T17:19:29.014Z,21.60
2023-01-12T17:21:59.295Z,21.60
2023-01-12T17:24:29.222Z,21.50
2023-01-12T17:26:59.075Z,21.50
2023-01-12T17:29:29.704Z,21.50
2023-01-12T17:32:06.721Z,21.50
2023-01-12T17:34:40.752Z,21.50
2023-01-12T17:37:10.648Z,21.50
2023-01-12T17:39:43.484Z,21.40
2023-01-12T17:42:33.448Z,21.40
2023-01-12T17:45:03.475Z,21.40
2023-01-12T17:47:32.884Z,21.40
2023-01-12T17:50:02.098Z,21.30
2023-01-12T17:52:31.415Z,21.30
2023-01-12T17:55:00.532Z,21.30
2023-01-12T17:57:30.798Z,21.30
2023-01-12T17:59:59.969Z,21.30
2023-01-12T18:02:29.766Z,21.30
2023-01-12T18:04:58.880Z,21.30
2023-01-12T18:07:28.009Z,21.20
2023-01-12T18:09:57.165Z,21.20
2023-01-12T18:12:27.081Z,21.20
2023-01-12T18:14:56.765Z,21.20
2023-01-12T18:17:25.930Z,21.30
2023-01-12T18:19:55.038Z,21.30
2023-01-12T18:22:24.190Z,21.20
2023-01-12T18:24:53.506Z,21.20
2023-01-12T18:27:22.932Z,21.20
2023-01-12T18:29:52.017Z,21.20
2023-01-12T18:32:21.276Z,21.20
2023-01-12T18:34:50.422Z,21.20
2023-01-12T18:37:19.590Z,21.20
2023-01-12T18:39:50.641Z,21.20
2023-01-12T18:42:38.111Z,21.20
2023-01-12T18:45:07.840Z,21.20
2023-01-12T18:47:55.358Z,21.20
2023-01-12T18:50:42.885Z,21.20
2023-01-12T18:53:26.429Z,21.20
2023-01-12T18:56:02.688Z,21.20
2023-01-12T18:58:35.590Z,21.20
2023-01-12T19:01:15.541Z,21.10
2023-01-12T19:03:44.843Z,21.10
2023-01-12T19:06:22.283Z,21.10
2023-01-12T19:09:11.664Z,21.00
2023-01-12T19:11:42.395Z,21.00
2023-01-12T19:14:30.191Z,21.00
2023-01-12T19:17:17.450Z,21.00
2023-01-12T19:19:46.577Z,21.00
2023-01-12T19:22:33.931Z,21.00
2023-01-12T19:25:21.460Z,21.00
2023-01-12T19:28:08.770Z,21.00
2023-01-12T19:30:39.154Z,21.00
2023-01-12T19:33:17.383Z,21.00
2023-01-12T19:35:48.598Z,21.00
2023-01-12T19:38:17.769Z,20.90
2023-01-12T19:40:52.569Z,21.00
2023-01-12T19:43:27.286Z,21.00
2023-01-12T19:45:59.511Z,20.90
2023-01-12T19:48:28.896Z,21.00
2023-01-12T19:51:04.773Z,21.00
2023-01-12T19:53:34.253Z,21.00
2023-01-12T19:56:03.546Z,20.90
2023-01-12T19:58:32.676Z,20.90
2023-01-12T20:01:01.919Z,20.90
2023-01-12T20:03:31.891Z,20.90
2023-01-12T20:06:07.107Z,20.90
2023-01-12T20:08:36.319Z,20.90
2023-01-12T20:11:05.883Z,20.90
2023-01-12T20:13:36.427Z,20.90
2023-01-12T20:16:11.402Z,20.90
2023-01-12T20:18:44.316Z,20.90
2023-01-12T20:21:14.344Z,20.90
2023-01-12T20:23:43.551Z,20.90
2023-01-12T20:26:14.118Z,20.90
2023-01-12T20:28:43.452Z,21.00
2023-01-12T20:31:17.094Z,21.00
2023-01-12T20:33:46.294Z,21.10
2023-01-12T20:36:19.007Z,21.00
2023-01-12T20:38:48.544Z,21.10
2023-01-12T20:41:17.793Z,21.10
2023-01-12T20:43:47.463Z,21.10
2023-01-12T20:46:17.043Z,21.10
2023-01-12T20:48:46.898Z,21.10
2023-01-12T20:51:18.439Z,21.20
2023-01-12T20:53:47.604Z,21.20
2023-01-12T20:56:16.806Z,21.20
2023-01-12T20:58:46.095Z,21.20
2023-01-12T21:01:17.566Z,21.20
2023-01-12T21:03:47.045Z,21.20
2023-01-12T21:06:19.096Z,21.30
2023-01-12T21:08:49.444Z,21.30
2023-01-12T21:11:21.571Z,21.30
2023-01-12T21:13:50.939Z,21.30
2023-01-12T21:16:21.932Z,21.30
2023-01-12T21:18:52.595Z,21.30
2023-01-12T21:21:21.800Z,21.30
2023-01-12T21:23:51.196Z,21.30
2023-01-12T21:26:20.479Z,21.30
2023-01-12T21:28:49.655Z,21.30
2023-01-12T21:31:19.179Z,21.30
2023-01-12T21:33:48.442Z,21.20
2023-01-12T21:36:19.618Z,21.20
2023-01-12T21:38:53.644Z,21.20
2023-01-12T21:41:23.527Z,21.20
2023-01-12T21:43:54.713Z,21.10
2023-01-12T21:46:23.943Z,21.10
2023-01-12T21:48:53.156Z,21.00
2023-01-12T21:51:22.372Z,21.00
2023-01-12T21:53:51.524Z,21.00
2023-01-12T21:56:20.694Z,21.00
2023-01-12T21:58:50.003Z,21.00
2023-01-12T22:01:19.432Z,21.00
2023-01-12T22:03:49.830Z,21.00
2023-01-12T22:06:18.934Z,21.00
2023-01-12T22:08:48.076Z,21.00
2023-01-12T22:11:19.359Z,21.00
2023-01-12T22:13:48.621Z,21.00
2023-01-12T22:16:18.322Z,21.00
2023-01-12T22:18:50.629Z,21.00
2023-01-12T22:21:22.844Z,21.00
2023-01-12T22:23:52.014Z,20.90
2023-01-12T22:26:21.399Z,20.90
2023-01-12T22:28:51.173Z,20.90
2023-01-12T22:31:25.092Z,20.90
2023-01-12T22:34:05.367Z,20.90
2023-01-12T22:36:43.859Z,20.90
2023-01-12T22:39:16.275Z,20.90
2023-01-12T22:41:45.384Z,20.90
2023-01-12T22:44:14.608Z,20.90
2023-01-12T22:46:43.770Z,20.90
2023-01-12T22:49:13.315Z,20.90
2023-01-12T22:51:42.484Z,20.90
2023-01-12T22:54:11.606Z,20.90
2023-01-12T22:56:40.727Z,20.90
2023-01-12T22:59:10.996Z,20.90
2023-01-12T23:01:41.869Z,20.90
2023-01-12T23:04:14.325Z,20.80
2023-01-12T23:06:44.427Z,20.80
2023-01-12T23:09:14.115Z,20.80
2023-01-12T23:11:44.006Z,20.80
2023-01-12T23:14:13.686Z,20.80
2023-01-12T23:16:43.430Z,20.80
2023-01-12T23:19:13.761Z,20.80
2023-01-12T23:21:45.095Z,20.80
2023-01-12T23:24:14.791Z,20.80
2023-01-12T23:26:44.547Z,20.70
2023-01-12T23:29:14.256Z,20.70
2023-01-12T23:31:44.083Z,20.60
2023-01-12T23:34:14.603Z,20.50
2023-01-12T23:36:44.433Z,20.40
2023-01-12T23:39:14.478Z,20.40
2023-01-12T23:41:45.822Z,20.30
2023-01-12T23:44:15.704Z,20.20
2023-01-12T23:46:45.436Z,20.10
2023-01-12T23:49:15.150Z,20.00
2023-01-12T23:51:45.034Z,20.00
2023-01-12T23:54:19.628Z,19.90
2023-01-12T23:56:56.676Z,19.80
2023-01-12T23:59:26.439Z,19.80
